Time;durP1;ratioP1;P1;durP2;ratioP2;P2;SDS_P1;SDS_P2;PMS_P1;PMS_P2;Temp;Humidity;BMP_temperature;BMP_pressure;BME280_temperature;BME280_humidity;BME280_pressure;Samples;Min_cycle;Max_cycle;Signal;HPM_P1;HPM_P2
2023/05/15 00:00:05;;;;;;;127.57;56.83;;;;;;;;;;5082008;28;20046;-78
2023/05/15 00:02:35;;;;;;;116.80;53.28;;;;;;;;;;5083768;28;20043;-77
2023/05/15 00:05:01;;;;;;;101.22;53.47;;;;;;;;;;5084698;28;20526;-77
2023/05/15 00:07:27;;;;;;;152.68;57.72;;;;;;;;;;5084149;28;20071;-77
2023/05/15 00:09:53;;;;;;;94.47;52.08;;;;;;;;;;5105342;27;20739;-77
2023/05/15 00:12:19;;;;;;;92.90;50.90;;;;;;;;;;5067005;28;20170;-77
2023/05/15 00:14:44;;;;;;;104.90;52.88;;;;;;;;;;5068951;28;20454;-75
2023/05/15 00:17:11;;;;;;;108.15;55.00;;;;;;;;;;5098765;27;20052;-76
2023/05/15 00:19:37;;;;;;;94.90;51.78;;;;;;;;;;5071052;28;20051;-80
2023/05/15 00:22:03;;;;;;;93.70;53.42;;;;;;;;;;5073966;28;20530;-80
2023/05/15 00:24:29;;;;;;;104.88;55.05;;;;;;;;;;5105367;27;20136;-81
2023/05/15 00:26:55;;;;;;;107.07;54.75;;;;;;;;;;5099150;27;20159;-79
2023/05/15 00:29:22;;;;;;;99.82;54.05;;;;;;;;;;5098900;27;20500;-77
2023/05/15 00:31:48;;;;;;;98.15;52.22;;;;;;;;;;5088781;28;20055;-78
2023/05/15 00:34:17;;;;;;;94.90;52.17;;;;;;;;;;5084892;28;20170;-77
2023/05/15 00:36:46;;;;;;;89.70;50.58;;;;;;;;;;5073796;28;20617;-76
2023/05/15 00:39:12;;;;;;;89.85;50.35;;;;;;;;;;5056157;28;20073;-77
2023/05/15 00:41:40;;;;;;;87.28;50.97;;;;;;;;;;5075572;28;20044;-81
2023/05/15 00:44:06;;;;;;;83.22;49.55;;;;;;;;;;5081662;28;20495;-82
2023/05/15 00:46:32;;;;;;;99.30;50.55;;;;;;;;;;5080650;28;20485;-77
2023/05/15 00:48:59;;;;;;;104.65;52.58;;;;;;;;;;5082377;28;20578;-82
2023/05/15 00:51:25;;;;;;;86.45;49.35;;;;;;;;;;5086060;28;20044;-80
2023/05/15 00:53:52;;;;;;;152.05;59.17;;;;;;;;;;5101980;27;20052;-82
2023/05/15 00:56:18;;;;;;;116.18;53.85;;;;;;;;;;5085676;28;20049;-81
2023/05/15 00:58:48;;;;;;;118.55;54.13;;;;;;;;;;5073749;28;20044;-79
2023/05/15 01:01:15;;;;;;;115.43;54.05;;;;;;;;;;5075713;28;20040;-81
2023/05/15 01:03:41;;;;;;;109.93;56.13;;;;;;;;;;5094085;28;20067;-77
2023/05/15 01:06:07;;;;;;;127.85;54.70;;;;;;;;;;5087539;28;20046;-81
2023/05/15 01:08:33;;;;;;;113.78;54.13;;;;;;;;;;5080732;28;20452;-79
2023/05/15 01:10:59;;;;;;;126.75;56.22;;;;;;;;;;5091431;28;20051;-82
2023/05/15 01:13:25;;;;;;;101.45;53.05;;;;;;;;;;5080204;28;20051;-79
2023/05/15 01:15:52;;;;;;;120.47;56.03;;;;;;;;;;5074656;28;20499;-80
2023/05/15 01:18:18;;;;;;;115.60;55.70;;;;;;;;;;5070976;28;20052;-80
2023/05/15 01:21:10;;;;;;;126.85;57.17;;;;;;;;;;5089349;28;20514;-80
2023/05/15 01:23:45;;;;;;;112.22;57.85;;;;;;;;;;5099454;27;20049;-82
2023/05/15 01:26:29;;;;;;;118.97;55.95;;;;;;;;;;5071261;28;20041;-81
2023/05/15 01:29:01;;;;;;;119.75;55.47;;;;;;;;;;5105198;27;20054;-77
2023/05/15 01:31:30;;;;;;;168.43;58.78;;;;;;;;;;5085304;28;20051;-81
2023/05/15 01:33:58;;;;;;;153.30;58.97;;;;;;;;;;5067470;28;20044;-80
2023/05/15 01:36:28;;;;;;;104.05;54.78;;;;;;;;;;5076716;28;20438;-80
2023/05/15 01:38:57;;;;;;;101.07;54.72;;;;;;;;;;5104746;27;20040;-76
2023/05/15 01:41:31;;;;;;;92.90;52.97;;;;;;;;;;5068774;28;20083;-79
2023/05/15 01:44:11;;;;;;;92.53;51.83;;;;;;;;;;5085937;28;20035;-83
2023/05/15 01:46:43;;;;;;;96.30;54.58;;;;;;;;;;5093298;27;20577;-81
2023/05/15 01:49:10;;;;;;;104.07;55.65;;;;;;;;;;5082391;28;20079;-80
2023/05/15 01:51:37;;;;;;;114.20;55.67;;;;;;;;;;5075115;28;20058;-80
2023/05/15 01:54:04;;;;;;;102.55;54.55;;;;;;;;;;5084820;28;20044;-80
2023/05/15 01:56:30;;;;;;;99.10;54.50;;;;;;;;;;5088677;28;20036;-82
2023/05/15 01:58:58;;;;;;;99.18;54.05;;;;;;;;;;5082255;28;20044;-78
2023/05/15 02:01:25;;;;;;;105.80;53.97;;;;;;;;;;5071681;28;20436;-79
2023/05/15 02:03:52;;;;;;;106.38;54.13;;;;;;;;;;5083138;28;20044;-82
2023/05/15 02:06:18;;;;;;;94.35;51.92;;;;;;;;;;5088722;28;20090;-82
2023/05/15 02:08:44;;;;;;;105.25;54.38;;;;;;;;;;5078156;28;20044;-80
2023/05/15 02:11:11;;;;;;;102.50;52.75;;;;;;;;;;5092748;27;20039;-82
2023/05/15 02:13:37;;;;;;;103.10;54.13;;;;;;;;;;5081029;28;20039;-82
2023/05/15 02:16:03;;;;;;;108.40;55.90;;;;;;;;;;5090876;27;20043;-82
2023/05/15 02:18:29;;;;;;;93.97;52.03;;;;;;;;;;5086615;28;20111;-80
2023/05/15 02:20:55;;;;;;;96.97;52.67;;;;;;;;;;5083035;28;20068;-77
2023/05/15 02:23:22;;;;;;;116.93;57.95;;;;;;;;;;5089705;27;20096;-82
2023/05/15 02:26:00;;;;;;;100.97;54.05;;;;;;;;;;5086437;28;20051;-83
2023/05/15 02:28:26;;;;;;;;;;;;;;;;;;5089052;28;20081;-80
2023/05/15 02:30:57;;;;;;;106.75;56.13;;;;;;;;;;5082802;28;19923;-81
2023/05/15 02:33:41;;;;;;;104.55;55.30;;;;;;;;;;5085266;28;20072;-83
2023/05/15 02:36:09;;;;;;;98.20;54.42;;;;;;;;;;5085544;28;21993;-80
2023/05/15 02:38:46;;;;;;;94.88;54.60;;;;;;;;;;5094900;28;20047;-78
2023/05/15 02:41:13;;;;;;;85.05;50.70;;;;;;;;;;5080606;28;20151;-79
2023/05/15 02:43:39;;;;;;;102.63;55.15;;;;;;;;;;5077693;28;20083;-80
2023/05/15 02:46:06;;;;;;;115.97;57.10;;;;;;;;;;5063227;28;20163;-77
2023/05/15 02:48:32;;;;;;;101.72;54.45;;;;;;;;;;5082649;28;20043;-76
2023/05/15 02:50:58;;;;;;;101.50;54.17;;;;;;;;;;5084367;28;20065;-78
2023/05/15 02:53:24;;;;;;;101.75;54.80;;;;;;;;;;5073442;28;20096;-76
2023/05/15 02:55:50;;;;;;;135.60;55.58;;;;;;;;;;5083531;28;20623;-78
2023/05/15 02:58:16;;;;;;;138.05;55.10;;;;;;;;;;5074225;28;20043;-77
2023/05/15 03:00:42;;;;;;;117.47;54.67;;;;;;;;;;5091794;28;20048;-76
2023/05/15 03:03:08;;;;;;;138.27;57.97;;;;;;;;;;5081198;28;20054;-77
2023/05/15 03:05:34;;;;;;;131.68;59.22;;;;;;;;;;5078213;28;20047;-76
2023/05/15 03:08:00;;;;;;;111.82;56.42;;;;;;;;;;5072950;28;20081;-77
2023/05/15 03:10:26;;;;;;;110.20;57.00;;;;;;;;;;5073551;28;20480;-77
2023/05/15 03:12:56;;;;;;;103.88;55.97;;;;;;;;;;5082395;28;20039;-77
2023/05/15 03:15:22;;;;;;;95.03;53.55;;;;;;;;;;5100167;27;20052;-76
2023/05/15 03:17:48;;;;;;;122.53;58.47;;;;;;;;;;5082983;28;20096;-77
2023/05/15 03:20:15;;;;;;;116.63;57.63;;;;;;;;;;5081292;28;20381;-77
2023/05/15 03:22:41;;;;;;;101.55;54.35;;;;;;;;;;5067300;28;20044;-78
2023/05/15 03:25:09;;;;;;;175.85;58.28;;;;;;;;;;5085167;28;20050;-77
2023/05/15 03:27:35;;;;;;;195.60;59.20;;;;;;;;;;5087356;28;20044;-76
2023/05/15 03:30:01;;;;;;;107.30;53.13;;;;;;;;;;5085175;28;20453;-76
2023/05/15 03:32:27;;;;;;;103.72;53.40;;;;;;;;;;5084919;28;20044;-77
2023/05/15 03:34:53;;;;;;;123.68;57.03;;;;;;;;;;5086180;28;20044;-77
2023/05/15 03:37:19;;;;;;;114.35;56.50;;;;;;;;;;5086366;28;20411;-78
2023/05/15 03:39:45;;;;;;;104.95;53.53;;;;;;;;;;5078584;28;20047;-77
2023/05/15 03:42:11;;;;;;;146.73;58.58;;;;;;;;;;5082499;28;20807;-80
2023/05/15 03:44:37;;;;;;;154.93;56.63;;;;;;;;;;5065885;28;20062;-78
2023/05/15 03:47:04;;;;;;;145.45;58.13;;;;;;;;;;5079255;28;20051;-76
2023/05/15 03:49:29;;;;;;;120.15;57.30;;;;;;;;;;5082534;28;20098;-77
2023/05/15 03:51:56;;;;;;;134.45;57.45;;;;;;;;;;5082088;28;20552;-77
2023/05/15 03:54:22;;;;;;;159.43;60.25;;;;;;;;;;5082857;28;20096;-76
2023/05/15 03:56:48;;;;;;;99.82;53.58;;;;;;;;;;5082614;28;20033;-77
2023/05/15 03:59:14;;;;;;;93.47;51.72;;;;;;;;;;5076855;28;20119;-79
2023/05/15 04:01:40;;;;;;;110.00;51.95;;;;;;;;;;5080713;28;20134;-78
2023/05/15 04:04:06;;;;;;;91.05;49.85;;;;;;;;;;5085346;28;20051;-81
2023/05/15 04:06:32;;;;;;;96.15;50.05;;;;;;;;;;5082991;28;20119;-78
2023/05/15 04:08:58;;;;;;;80.32;46.63;;;;;;;;;;5094981;28;20036;-80
2023/05/15 04:11:25;;;;;;;78.22;47.45;;;;;;;;;;5088574;28;20032;-79
2023/05/15 04:13:51;;;;;;;77.57;45.85;;;;;;;;;;5125251;27;20122;-77
2023/05/15 04:16:17;;;;;;;79.15;46.20;;;;;;;;;;5091430;28;20122;-79
2023/05/15 04:18:43;;;;;;;85.13;45.83;;;;;;;;;;5096460;28;20055;-77
2023/05/15 04:21:08;;;;;;;83.85;46.33;;;;;;;;;;5087675;28;20610;-80
2023/05/15 04:23:35;;;;;;;100.28;47.35;;;;;;;;;;5089357;28;20399;-79
2023/05/15 04:26:01;;;;;;;89.45;47.35;;;;;;;;;;5082782;28;20040;-79
2023/05/15 04:28:27;;;;;;;81.55;46.15;;;;;;;;;;5081985;28;20039;-79
2023/05/15 04:30:53;;;;;;;77.07;44.10;;;;;;;;;;5088580;28;20079;-77
2023/05/15 04:33:19;;;;;;;68.53;40.80;;;;;;;;;;5102599;27;20493;-77
2023/05/15 04:35:46;;;;;;;68.60;42.42;;;;;;;;;;5088451;28;20071;-78
2023/05/15 04:38:12;;;;;;;73.82;42.40;;;;;;;;;;5082074;28;20151;-76
2023/05/15 04:40:38;;;;;;;77.72;43.58;;;;;;;;;;5089833;28;20620;-77
2023/05/15 04:43:05;;;;;;;79.18;44.55;;;;;;;;;;5088889;28;20058;-76
2023/05/15 04:45:31;;;;;;;79.15;43.15;;;;;;;;;;5078620;28;20044;-79
2023/05/15 04:47:57;;;;;;;76.63;42.38;;;;;;;;;;5106895;27;20079;-76
2023/05/15 04:50:23;;;;;;;66.18;40.22;;;;;;;;;;5079259;28;20162;-77
2023/05/15 04:52:51;;;;;;;58.63;37.38;;;;;;;;;;5078560;28;20048;-77
2023/05/15 04:55:16;;;;;;;58.67;37.13;;;;;;;;;;5083365;27;20063;-76
2023/05/15 04:57:42;;;;;;;64.28;37.92;;;;;;;;;;5102969;27;20035;-76
2023/05/15 05:00:10;;;;;;;64.40;38.20;;;;;;;;;;5082472;28;20048;-76
2023/05/15 05:02:37;;;;;;;65.43;39.60;;;;;;;;;;5102366;27;20047;-78
2023/05/15 05:05:03;;;;;;;62.50;37.63;;;;;;;;;;5076080;28;20040;-77
2023/05/15 05:07:29;;;;;;;58.42;36.88;;;;;;;;;;5071871;28;20141;-77
2023/05/15 05:09:55;;;;;;;57.88;37.15;;;;;;;;;;5079564;28;20041;-75
2023/05/15 05:12:21;;;;;;;58.33;36.25;;;;;;;;;;5080377;28;20037;-75
2023/05/15 05:14:47;;;;;;;52.50;33.72;;;;;;;;;;5079662;28;20043;-76
2023/05/15 05:17:13;;;;;;;52.70;34.05;;;;;;;;;;5091292;28;20050;-76
2023/05/15 05:19:39;;;;;;;48.72;33.15;;;;;;;;;;5105399;27;20043;-76
2023/05/15 05:22:06;;;;;;;49.17;34.10;;;;;;;;;;5085883;28;20044;-77
2023/05/15 05:24:34;;;;;;;46.30;32.58;;;;;;;;;;5095244;27;20530;-78
2023/05/15 05:27:00;;;;;;;43.78;31.73;;;;;;;;;;5091367;28;20031;-77
2023/05/15 05:29:26;;;;;;;45.63;33.22;;;;;;;;;;5082739;28;20116;-78
2023/05/15 05:31:52;;;;;;;44.05;31.60;;;;;;;;;;5097814;27;20051;-77
2023/05/15 05:34:19;;;;;;;44.10;32.85;;;;;;;;;;5086493;28;20491;-79
2023/05/15 05:36:45;;;;;;;43.67;33.15;;;;;;;;;;5089780;28;20507;-79
2023/05/15 05:39:11;;;;;;;39.13;32.33;;;;;;;;;;5060519;28;20055;-78
2023/05/15 05:41:37;;;;;;;42.35;32.20;;;;;;;;;;5072686;28;20062;-79
2023/05/15 05:44:03;;;;;;;46.30;32.85;;;;;;;;;;5072751;28;20431;-78
2023/05/15 05:46:29;;;;;;;41.55;33.38;;;;;;;;;;5079475;28;20043;-79
2023/05/15 05:48:55;;;;;;;41.95;33.00;;;;;;;;;;5080410;28;20064;-78
2023/05/15 05:51:21;;;;;;;42.45;33.63;;;;;;;;;;5075709;28;20071;-78
2023/05/15 05:53:47;;;;;;;44.40;33.53;;;;;;;;;;5077852;28;21720;-78
2023/05/15 05:56:13;;;;;;;35.13;30.98;;;;;;;;;;5073963;28;20054;-78
2023/05/15 05:58:39;;;;;;;39.33;31.75;;;;;;;;;;5078188;28;20036;-79
2023/05/15 06:01:05;;;;;;;39.38;32.35;;;;;;;;;;5073625;28;20124;-80
2023/05/15 06:03:33;;;;;;;38.35;32.13;;;;;;;;;;5075249;28;20503;-80
2023/05/15 06:05:59;;;;;;;36.00;30.10;;;;;;;;;;5113358;27;20044;-80
2023/05/15 06:08:25;;;;;;;36.70;30.75;;;;;;;;;;5060995;28;20044;-78
2023/05/15 06:10:51;;;;;;;34.80;28.77;;;;;;;;;;5073802;28;20583;-77
2023/05/15 06:13:17;;;;;;;32.30;27.08;;;;;;;;;;5074784;28;20624;-75
2023/05/15 06:15:45;;;;;;;34.15;27.77;;;;;;;;;;5095715;27;20043;-77
2023/05/15 06:18:11;;;;;;;29.55;25.80;;;;;;;;;;5067868;28;20040;-78
2023/05/15 06:20:37;;;;;;;27.90;24.90;;;;;;;;;;5052337;28;20092;-77
2023/05/15 06:23:03;;;;;;;30.45;24.77;;;;;;;;;;5103240;27;20118;-75
2023/05/15 06:25:29;;;;;;;25.38;22.50;;;;;;;;;;5069332;28;20108;-76
2023/05/15 06:27:55;;;;;;;25.48;22.73;;;;;;;;;;5076691;28;20097;-78
2023/05/15 06:30:22;;;;;;;27.48;21.95;;;;;;;;;;5050758;28;20047;-78
2023/05/15 06:32:50;;;;;;;29.55;23.05;;;;;;;;;;5072955;28;20104;-79
2023/05/15 06:35:16;;;;;;;25.00;22.40;;;;;;;;;;5071255;28;20059;-79
2023/05/15 06:37:42;;;;;;;23.67;21.27;;;;;;;;;;5075912;28;20048;-79
2023/05/15 06:40:09;;;;;;;26.95;21.23;;;;;;;;;;5068976;28;20055;-77
2023/05/15 06:42:35;;;;;;;26.88;21.33;;;;;;;;;;5070190;28;20040;-77
2023/05/15 06:45:01;;;;;;;27.05;23.52;;;;;;;;;;5074735;28;20120;-80
2023/05/15 06:47:36;;;;;;;25.83;21.08;;;;;;;;;;5051998;28;20052;-77
2023/05/15 06:50:06;;;;;;;26.15;20.63;;;;;;;;;;5086559;28;20095;-79
2023/05/15 06:52:35;;;;;;;23.25;19.83;;;;;;;;;;5054007;28;20399;-78
2023/05/15 06:55:04;;;;;;;22.02;19.63;;;;;;;;;;5053791;28;20037;-75
2023/05/15 06:57:30;;;;;;;26.63;20.30;;;;;;;;;;5047620;28;20044;-78
2023/05/15 06:59:56;;;;;;;21.20;18.67;;;;;;;;;;5070571;28;20071;-79
2023/05/15 07:02:22;;;;;;;21.20;18.83;;;;;;;;;;5069112;28;20036;-79
2023/05/15 07:04:48;;;;;;;22.23;18.52;;;;;;;;;;5069212;28;20143;-78
2023/05/15 07:07:14;;;;;;;21.27;17.75;;;;;;;;;;5071399;28;20049;-78
2023/05/15 07:09:40;;;;;;;21.48;17.60;;;;;;;;;;5070344;28;20109;-77
2023/05/15 07:12:06;;;;;;;20.67;18.48;;;;;;;;;;5067364;28;20138;-77
2023/05/15 07:14:33;;;;;;;19.25;17.35;;;;;;;;;;5071081;28;20181;-78
2023/05/15 07:16:59;;;;;;;23.60;17.70;;;;;;;;;;5106577;28;20487;-79
2023/05/15 07:19:25;;;;;;;20.45;16.27;;;;;;;;;;5068662;28;20163;-78
2023/05/15 07:21:51;;;;;;;17.60;15.77;;;;;;;;;;5074612;28;20667;-79
2023/05/15 07:24:17;;;;;;;20.13;16.85;;;;;;;;;;5079158;28;20036;-80
2023/05/15 07:26:43;;;;;;;18.15;16.23;;;;;;;;;;5076054;28;20680;-78
2023/05/15 07:29:09;;;;;;;18.40;16.40;;;;;;;;;;5077418;28;20060;-76
2023/05/15 07:31:35;;;;;;;21.17;16.95;;;;;;;;;;5059768;28;20181;-78
2023/05/15 07:34:01;;;;;;;21.70;17.42;;;;;;;;;;5086648;28;20082;-79
2023/05/15 07:36:30;;;;;;;20.58;16.10;;;;;;;;;;5059738;28;20051;-79
2023/05/15 07:38:59;;;;;;;20.40;16.50;;;;;;;;;;5072572;28;20076;-78
2023/05/15 07:41:29;;;;;;;20.55;15.68;;;;;;;;;;5072325;28;20528;-78
2023/05/15 07:43:56;;;;;;;18.70;15.88;;;;;;;;;;5057856;28;21235;-75
2023/05/15 07:46:22;;;;;;;21.25;15.55;;;;;;;;;;5071226;28;20096;-76
2023/05/15 07:48:48;;;;;;;17.60;15.75;;;;;;;;;;5056044;28;20044;-75
2023/05/15 07:51:18;;;;;;;18.55;16.10;;;;;;;;;;5071979;28;20044;-77
2023/05/15 07:53:44;;;;;;;21.98;15.80;;;;;;;;;;5074354;28;20044;-78
2023/05/15 07:56:10;;;;;;;21.17;15.77;;;;;;;;;;5071685;28;20236;-74
2023/05/15 07:58:37;;;;;;;17.38;15.68;;;;;;;;;;5073236;28;20039;-75
2023/05/15 08:01:03;;;;;;;21.85;15.45;;;;;;;;;;5076789;28;20101;-76
2023/05/15 08:03:30;;;;;;;20.08;15.43;;;;;;;;;;5073436;28;20828;-75
2023/05/15 08:05:56;;;;;;;20.27;15.90;;;;;;;;;;5078251;28;20047;-76
2023/05/15 08:08:21;;;;;;;22.38;14.60;;;;;;;;;;5071449;28;20448;-77
2023/05/15 08:10:47;;;;;;;17.90;14.88;;;;;;;;;;5058868;28;20127;-76
2023/05/15 08:13:13;;;;;;;16.83;15.00;;;;;;;;;;5073791;28;20056;-75
2023/05/15 08:15:39;;;;;;;19.45;14.88;;;;;;;;;;5070667;28;20402;-77
2023/05/15 08:18:09;;;;;;;17.20;13.80;;;;;;;;;;5077120;28;20048;-75
2023/05/15 08:20:36;;;;;;;15.93;12.98;;;;;;;;;;5076122;28;20063;-75
2023/05/15 08:23:02;;;;;;;17.23;13.60;;;;;;;;;;5076162;28;20079;-74
2023/05/15 08:25:28;;;;;;;18.70;12.73;;;;;;;;;;5075112;28;20135;-75
2023/05/15 08:27:55;;;;;;;13.05;11.65;;;;;;;;;;5073980;28;20667;-76
2023/05/15 08:30:21;;;;;;;15.43;12.15;;;;;;;;;;5078902;28;20040;-75
2023/05/15 08:32:48;;;;;;;16.02;12.00;;;;;;;;;;5071021;28;20048;-75
2023/05/15 08:35:14;;;;;;;15.80;12.02;;;;;;;;;;5071239;28;20132;-75
2023/05/15 08:37:40;;;;;;;15.85;11.52;;;;;;;;;;5075001;28;20051;-76
2023/05/15 08:40:06;;;;;;;13.10;10.70;;;;;;;;;;5073973;28;20052;-76
2023/05/15 08:42:37;;;;;;;13.70;10.73;;;;;;;;;;5070817;28;20817;-77
2023/05/15 08:45:04;;;;;;;16.45;11.60;;;;;;;;;;5100519;27;20052;-74
2023/05/15 08:47:31;;;;;;;15.10;12.15;;;;;;;;;;5069541;28;20078;-74
2023/05/15 08:49:59;;;;;;;12.55;10.90;;;;;;;;;;5098704;27;20057;-74
2023/05/15 08:52:25;;;;;;;11.93;9.90;;;;;;;;;;5064469;28;20048;-76
2023/05/15 08:54:52;;;;;;;11.07;9.70;;;;;;;;;;5097404;27;20056;-74
2023/05/15 08:57:18;;;;;;;12.43;10.02;;;;;;;;;;5074214;28;20568;-74
2023/05/15 08:59:45;;;;;;;12.63;10.43;;;;;;;;;;5051653;28;20077;-75
2023/05/15 09:02:12;;;;;;;11.15;9.45;;;;;;;;;;5085954;28;20055;-75
2023/05/15 09:04:38;;;;;;;13.20;10.20;;;;;;;;;;5061217;28;20051;-75
2023/05/15 09:07:08;;;;;;;15.60;10.60;;;;;;;;;;5072601;28;20506;-75
2023/05/15 09:09:34;;;;;;;12.75;10.35;;;;;;;;;;5074117;28;20413;-75
2023/05/15 09:12:03;;;;;;;11.10;9.82;;;;;;;;;;5088542;27;20041;-76
2023/05/15 09:14:35;;;;;;;12.25;10.50;;;;;;;;;;5078185;28;20047;-75
2023/05/15 09:17:08;;;;;;;13.38;10.50;;;;;;;;;;5093460;27;20043;-78
2023/05/15 09:19:34;;;;;;;11.85;9.68;;;;;;;;;;5051789;28;20213;-75
2023/05/15 09:22:16;;;;;;;10.18;9.13;;;;;;;;;;5076110;28;20081;-76
2023/05/15 09:24:52;;;;;;;14.95;10.02;;;;;;;;;;5070556;28;20075;-76
2023/05/15 09:27:26;;;;;;;15.90;9.13;;;;;;;;;;5070113;28;20090;-76
2023/05/15 09:29:55;;;;;;;12.02;8.95;;;;;;;;;;5052072;28;20051;-76
2023/05/15 09:32:27;;;;;;;11.27;8.07;;;;;;;;;;5081391;28;20047;-74
2023/05/15 09:34:53;;;;;;;10.80;8.00;;;;;;;;;;5075432;28;20044;-75
2023/05/15 09:37:29;;;;;;;11.18;8.88;;;;;;;;;;5074036;28;20044;-74
2023/05/15 09:39:55;;;;;;;10.20;9.15;;;;;;;;;;5072271;28;20545;-75
2023/05/15 09:42:24;;;;;;;11.13;7.57;;;;;;;;;;5071966;28;20056;-75
2023/05/15 09:44:50;;;;;;;;;;;;;;;;;;5075516;28;20430;-75
2023/05/15 09:47:16;;;;;;;9.10;8.18;;;;;;;;;;5074196;28;19943;-74
2023/05/15 09:49:45;;;;;;;10.35;8.05;;;;;;;;;;5074624;28;20548;-75
2023/05/15 09:52:12;;;;;;;9.90;8.05;;;;;;;;;;5069180;28;20135;-75
2023/05/15 09:54:38;;;;;;;10.70;8.27;;;;;;;;;;5076719;28;20725;-77
2023/05/15 09:57:08;;;;;;;12.77;8.50;;;;;;;;;;5074318;28;20075;-77
2023/05/15 09:59:34;;;;;;;12.13;8.00;;;;;;;;;;5073872;28;20048;-77
2023/05/15 10:02:00;;;;;;;10.50;7.70;;;;;;;;;;5074401;28;20082;-76
2023/05/15 10:04:26;;;;;;;8.15;6.97;;;;;;;;;;5074508;28;20085;-77
2023/05/15 10:06:52;;;;;;;8.90;7.13;;;;;;;;;;5075695;28;20540;-77
2023/05/15 10:09:18;;;;;;;8.23;6.97;;;;;;;;;;5052518;28;20044;-77
2023/05/15 10:11:49;;;;;;;9.60;7.93;;;;;;;;;;5073283;28;20040;-75
2023/05/15 10:14:16;;;;;;;13.23;8.43;;;;;;;;;;5074664;28;20968;-77
2023/05/15 10:16:43;;;;;;;13.02;9.77;;;;;;;;;;5076421;28;20412;-75
2023/05/15 10:19:10;;;;;;;11.50;9.65;;;;;;;;;;5077935;28;20181;-75
2023/05/15 10:21:37;;;;;;;11.70;8.90;;;;;;;;;;5073554;28;20048;-75
2023/05/15 10:24:04;;;;;;;11.95;8.02;;;;;;;;;;5076625;28;20686;-74
2023/05/15 10:26:37;;;;;;;9.90;7.82;;;;;;;;;;5054926;28;20067;-75
2023/05/15 10:29:08;;;;;;;15.05;9.00;;;;;;;;;;5073655;28;20086;-76
2023/05/15 10:31:35;;;;;;;15.63;9.13;;;;;;;;;;5072104;28;20051;-75
2023/05/15 10:34:02;;;;;;;8.07;7.03;;;;;;;;;;5069803;28;20073;-74
2023/05/15 10:36:28;;;;;;;13.95;7.72;;;;;;;;;;5100396;27;20097;-75
2023/05/15 10:38:54;;;;;;;8.95;7.10;;;;;;;;;;5075445;28;21235;-74
2023/05/15 10:41:21;;;;;;;10.55;7.25;;;;;;;;;;5104783;27;20059;-75
2023/05/15 10:43:48;;;;;;;13.10;8.02;;;;;;;;;;5073340;28;20052;-74
2023/05/15 10:46:15;;;;;;;8.27;7.37;;;;;;;;;;5071577;28;20385;-75
2023/05/15 10:48:41;;;;;;;10.23;7.20;;;;;;;;;;5054056;28;20044;-76
2023/05/15 10:51:15;;;;;;;9.38;7.68;;;;;;;;;;5089156;28;20056;-76
2023/05/15 10:53:42;;;;;;;10.52;8.65;;;;;;;;;;5070840;28;20180;-76
2023/05/15 10:56:12;;;;;;;10.02;7.50;;;;;;;;;;5105752;27;20044;-75
2023/05/15 10:58:38;;;;;;;9.43;7.55;;;;;;;;;;5073225;28;20117;-75
2023/05/15 11:01:05;;;;;;;11.50;8.85;;;;;;;;;;5066812;28;20131;-75
2023/05/15 11:03:37;;;;;;;13.88;10.40;;;;;;;;;;5073588;28;20044;-77
2023/05/15 11:06:10;;;;;;;11.20;8.82;;;;;;;;;;5070668;28;20100;-76
2023/05/15 11:08:37;;;;;;;12.02;9.00;;;;;;;;;;5072091;28;20044;-77
2023/05/15 11:11:03;;;;;;;9.25;7.90;;;;;;;;;;5072133;28;20492;-77
2023/05/15 11:13:56;;;;;;;9.70;8.10;;;;;;;;;;5075457;28;20609;-76
2023/05/15 11:16:40;;;;;;;10.60;7.95;;;;;;;;;;5080541;28;20048;-78
2023/05/15 11:19:21;;;;;;;10.32;7.85;;;;;;;;;;5078427;28;20131;-77
2023/05/15 11:21:47;;;;;;;11.52;8.48;;;;;;;;;;5079906;28;20158;-77
2023/05/15 11:24:13;;;;;;;9.55;7.35;;;;;;;;;;5060526;28;20482;-77
2023/05/15 11:26:42;;;;;;;12.07;8.43;;;;;;;;;;5100386;27;20058;-76
2023/05/15 11:29:18;;;;;;;11.60;7.82;;;;;;;;;;5080942;28;20580;-76
2023/05/15 11:31:44;;;;;;;12.10;7.97;;;;;;;;;;5092930;28;20128;-75
2023/05/15 11:34:10;;;;;;;8.13;7.00;;;;;;;;;;5059664;28;20373;-75
2023/05/15 11:36:40;;;;;;;9.05;7.07;;;;;;;;;;5073458;28;20079;-77
2023/05/15 11:39:12;;;;;;;10.60;7.55;;;;;;;;;;5077968;28;20120;-78
2023/05/15 11:41:39;;;;;;;9.27;7.45;;;;;;;;;;5079801;28;20131;-79
2023/05/15 11:44:05;;;;;;;8.70;6.28;;;;;;;;;;5074058;28;20055;-77
2023/05/15 11:46:32;;;;;;;9.73;7.43;;;;;;;;;;5072772;28;20397;-77
2023/05/15 11:48:58;;;;;;;11.30;8.07;;;;;;;;;;5076382;28;20094;-80
2023/05/15 11:51:26;;;;;;;10.38;7.32;;;;;;;;;;5075584;28;20083;-80
2023/05/15 11:53:53;;;;;;;10.85;7.38;;;;;;;;;;5064042;28;20519;-76
2023/05/15 11:56:20;;;;;;;9.32;7.28;;;;;;;;;;5075410;28;20123;-76
2023/05/15 11:58:49;;;;;;;9.45;7.60;;;;;;;;;;5072330;28;20594;-78
2023/05/15 12:01:15;;;;;;;12.35;7.78;;;;;;;;;;5089558;27;20054;-78
2023/05/15 12:03:41;;;;;;;7.88;6.95;;;;;;;;;;5074485;28;20063;-79
2023/05/15 12:06:09;;;;;;;8.40;6.47;;;;;;;;;;5076694;28;20111;-76
2023/05/15 12:08:40;;;;;;;11.27;7.28;;;;;;;;;;5071761;28;20055;-76
2023/05/15 12:11:06;;;;;;;9.90;6.85;;;;;;;;;;5075547;28;20060;-78
2023/05/15 12:13:33;;;;;;;9.35;6.40;;;;;;;;;;5075624;28;20092;-79
2023/05/15 12:16:00;;;;;;;9.40;6.55;;;;;;;;;;5072342;28;20044;-77
2023/05/15 12:18:26;;;;;;;8.48;6.93;;;;;;;;;;5074848;28;20090;-75
2023/05/15 12:20:56;;;;;;;9.27;7.00;;;;;;;;;;5074006;28;20559;-74
2023/05/15 12:23:27;;;;;;;9.13;6.65;;;;;;;;;;5056809;28;20040;-75
2023/05/15 12:25:57;;;;;;;7.88;6.30;;;;;;;;;;5072694;28;20048;-74
2023/05/15 12:28:23;;;;;;;8.02;6.32;;;;;;;;;;5054682;28;20094;-75
2023/05/15 12:30:50;;;;;;;13.98;7.35;;;;;;;;;;5070900;28;20409;-74
2023/05/15 12:33:16;;;;;;;7.95;6.63;;;;;;;;;;5053694;28;20036;-73
2023/05/15 12:35:43;;;;;;;9.40;6.32;;;;;;;;;;5073785;28;20054;-72
2023/05/15 12:38:14;;;;;;;8.57;6.85;;;;;;;;;;5080452;28;20042;-73
2023/05/15 12:40:40;;;;;;;10.30;6.50;;;;;;;;;;5075035;28;20079;-74
2023/05/15 12:43:06;;;;;;;10.85;6.70;;;;;;;;;;5080534;28;20663;-73
2023/05/15 12:45:34;;;;;;;11.50;8.15;;;;;;;;;;5073970;28;20652;-74
2023/05/15 12:48:00;;;;;;;10.77;9.20;;;;;;;;;;5075622;28;20264;-73
2023/05/15 12:50:29;;;;;;;10.57;9.57;;;;;;;;;;5070804;28;20060;-74
2023/05/15 12:52:56;;;;;;;10.40;9.43;;;;;;;;;;5071545;28;20043;-74
2023/05/15 12:55:32;;;;;;;11.30;10.20;;;;;;;;;;5072354;28;20056;-74
2023/05/15 12:58:00;;;;;;;15.05;9.65;;;;;;;;;;5072889;28;20839;-74
2023/05/15 13:00:26;;;;;;;;;;;;;;;;;;5071548;28;20051;-75
2023/05/15 13:02:53;;;;;;;12.70;9.75;;;;;;;;;;5072834;28;19924;-77
2023/05/15 13:05:22;;;;;;;15.65;8.80;;;;;;;;;;5072325;28;20055;-76
2023/05/15 13:07:48;;;;;;;9.82;7.65;;;;;;;;;;5073604;28;20040;-77
2023/05/15 13:10:14;;;;;;;9.60;8.00;;;;;;;;;;5057125;28;20612;-75
2023/05/15 13:12:44;;;;;;;14.90;8.70;;;;;;;;;;5057459;28;20122;-76
2023/05/15 13:15:30;;;;;;;9.98;8.05;;;;;;;;;;5073013;28;20131;-75
2023/05/15 13:18:00;;;;;;;8.98;7.93;;;;;;;;;;5047661;28;20040;-75
2023/05/15 13:20:32;;;;;;;8.98;6.78;;;;;;;;;;5073715;28;20044;-76
2023/05/15 13:22:58;;;;;;;8.32;6.90;;;;;;;;;;5056911;28;20076;-75
2023/05/15 13:25:24;;;;;;;8.82;7.00;;;;;;;;;;5071695;28;20131;-74
2023/05/15 13:27:50;;;;;;;9.70;7.10;;;;;;;;;;5069409;28;20052;-75
2023/05/15 13:30:17;;;;;;;7.72;6.80;;;;;;;;;;5072061;28;20044;-75
2023/05/15 13:32:43;;;;;;;7.53;6.40;;;;;;;;;;5071253;28;20046;-75
2023/05/15 13:35:10;;;;;;;10.23;7.85;;;;;;;;;;5092179;28;20044;-74
2023/05/15 13:37:36;;;;;;;13.25;7.55;;;;;;;;;;5099826;27;20518;-75
2023/05/15 13:40:05;;;;;;;7.78;6.97;;;;;;;;;;5076379;28;20061;-75
2023/05/15 13:42:31;;;;;;;9.70;7.18;;;;;;;;;;5070782;28;20052;-75
2023/05/15 13:44:57;;;;;;;9.88;8.20;;;;;;;;;;5072739;28;20048;-76
2023/05/15 13:47:23;;;;;;;8.90;8.00;;;;;;;;;;5070645;28;20048;-76
2023/05/15 13:49:49;;;;;;;11.13;7.10;;;;;;;;;;5072102;28;20083;-76
2023/05/15 13:52:16;;;;;;;9.13;7.80;;;;;;;;;;5072579;28;20579;-75
2023/05/15 13:54:42;;;;;;;10.40;8.70;;;;;;;;;;5071356;28;20040;-74
2023/05/15 13:57:08;;;;;;;11.70;9.35;;;;;;;;;;5054270;28;20090;-75
2023/05/15 13:59:34;;;;;;;12.00;9.30;;;;;;;;;;5066830;28;20126;-74
2023/05/15 14:02:00;;;;;;;10.45;8.15;;;;;;;;;;5067528;28;20072;-75
2023/05/15 14:04:26;;;;;;;11.02;8.80;;;;;;;;;;5074030;28;20162;-75
2023/05/15 14:06:52;;;;;;;11.40;9.45;;;;;;;;;;5069345;28;20055;-75
2023/05/15 14:09:18;;;;;;;12.52;9.05;;;;;;;;;;5067930;28;20729;-74
2023/05/15 14:11:44;;;;;;;11.65;8.90;;;;;;;;;;5056942;28;20450;-75
2023/05/15 14:14:10;;;;;;;11.30;7.55;;;;;;;;;;5070255;28;20072;-75
2023/05/15 14:16:36;;;;;;;9.32;8.27;;;;;;;;;;5067911;28;20601;-75
2023/05/15 14:19:02;;;;;;;10.48;8.15;;;;;;;;;;5071348;28;20051;-76
2023/05/15 14:21:28;;;;;;;12.13;8.45;;;;;;;;;;5064972;28;20438;-76